This is the latest recevied weather packets stored in our database for station/object W4SNA-2. If no packets are shown the sender has not sent any weather packets the latest 1 day(s).
| Time | Temp. | Humidity | Pressure | Rain* | Wind** | Luminosity | Snow |
|---|---|---|---|---|---|---|---|
| 1778041297 | 16.67° C | 66% | 1014.6 hPa | 0 mm | 4.02 m/s, 185° | - | - |
| 1778040920 | 16.67° C | 65% | 1014.7 hPa | 0 mm | 4.92 m/s, 192° | - | - |
| 1778040620 | 16.67° C | 64% | 1014.8 hPa | 0 mm | 5.36 m/s, 199° | - | - |
| 1778040320 | 17.22° C | 63% | 1014.9 hPa | 0 mm | 4.92 m/s, 195° | - | - |
| 1778040020 | 17.22° C | 63% | 1015 hPa | 0 mm | 4.92 m/s, 197° | - | - |
| 1778039721 | 17.22° C | 62% | 1014.9 hPa | 0 mm | 4.02 m/s, 190° | - | - |
| 1778039420 | 17.22° C | 61% | 1014.9 hPa | 0 mm | 4.02 m/s, 188° | - | - |
| 1778039121 | 17.22° C | 61% | 1014.9 hPa | 0 mm | 4.02 m/s, 198° | - | - |
| 1778038820 | 17.22° C | 61% | 1014.9 hPa | 0 mm | 4.47 m/s, 198° | - | - |
| 1778038522 | 17.22° C | 60% | 1014.8 hPa | 0 mm | 4.02 m/s, 194° | - | - |
| 1778038220 | 17.22° C | 60% | 1015 hPa | 0 mm | 3.58 m/s, 195° | - | - |
| 1778037920 | 17.78° C | 59% | 1015 hPa | 0 mm | 3.13 m/s, 198° | - | - |
| 1778037620 | 17.78° C | 59% | 1015 hPa | 0 mm | 2.68 m/s, 192° | - | - |
| 1778037322 | 17.78° C | 58% | 1015.1 hPa | 0 mm | 3.13 m/s, 198° | - | - |
| 1778037020 | 17.78° C | 58% | 1015.1 hPa | 0 mm | 2.68 m/s, 189° | - | - |
| 1778036721 | 17.78° C | 58% | 1015.1 hPa | 0 mm | 3.13 m/s, 195° | - | - |
| 1778036420 | 17.78° C | 57% | 1015.2 hPa | 0 mm | 3.58 m/s, 199° | - | - |
| 1778036121 | 17.78° C | 57% | 1015.4 hPa | 0 mm | 3.58 m/s, 196° | - | - |
| 1778035820 | 17.78° C | 57% | 1015.3 hPa | 0 mm | 3.13 m/s, 199° | - | - |
| 1778035520 | 17.78° C | 57% | 1015.3 hPa | 0 mm | 3.58 m/s, 197° | - | - |
| 1778035220 | 18.33° C | 57% | 1015.3 hPa | 0 mm | 3.13 m/s, 197° | - | - |
| 1778034920 | 18.33° C | 56% | 1015.4 hPa | 0 mm | 2.68 m/s, 199° | - | - |
| 1778034620 | 18.33° C | 56% | 1015.2 hPa | 0 mm | 2.68 m/s, 196° | - | - |
| 1778034320 | 18.33° C | 55% | 1015.4 hPa | 0 mm | 3.13 m/s, 200° | - | - |
| 1778034020 | 18.89° C | 55% | 1015.5 hPa | 0 mm | 2.68 m/s, 198° | - | - |
* Rain latest hour (hover to see other rain measurements)
** Current wind speed in m/s (hover to see current wind gust speed)